Terminal Aerodrome Forecast
Issued by NWS

Home | Current Version | Previous Version | Text Only | Print | Product List | Glossary On
Versions: 1 2 3 4 5 6 7 8 9 10 11 12 13 14 15
000
FTUS45 KTFX 222300
TAFHLN
TAF
KHLN 222321Z 2300/2324 21010KT P6SM FEW100
     FM230200 22010KT P6SM FEW080 SCT120
     FM232000 24005G15KT P6SM BKN250=

USA.gov is the U.S. government's official web portal to all federal, state and local government web resources and services.